Time;durP1;ratioP1;P1;durP2;ratioP2;P2;SDS_P1;SDS_P2;PMS_P1;PMS_P2;Temp;Humidity;BMP_temperature;BMP_pressure;BME280_temperature;BME280_humidity;BME280_pressure;Samples;Min_cycle;Max_cycle;Signal;HPM_P1;HPM_P2
2021/08/11 00:01:51;;;;;;;8.10;2.80;;;;;;;16.51;54.66;101396.22;7994666;28;20158;-68
2021/08/11 00:05:41;;;;;;;3.13;2.25;;;;;;;16.47;54.99;101400.09;7995798;28;20551;-67
2021/08/11 00:09:32;;;;;;;7.45;2.50;;;;;;;16.41;54.75;101400.59;7991440;28;20072;-66
2021/08/11 00:13:23;;;;;;;4.07;2.47;;;;;;;16.38;54.79;101401.69;7993506;28;20048;-67
2021/08/11 00:17:14;;;;;;;9.20;2.53;;;;;;;16.36;54.79;101408.09;7998657;28;20042;-67
2021/08/11 00:21:05;;;;;;;5.78;2.03;;;;;;;16.30;54.80;101409.44;7990915;28;20048;-67
2021/08/11 00:24:56;;;;;;;3.45;2.22;;;;;;;16.25;54.87;101395.69;8003985;28;20064;-67
2021/08/11 00:28:46;;;;;;;5.05;2.47;;;;;;;16.22;54.71;101395.09;7993068;28;20027;-67
2021/08/11 00:32:37;;;;;;;2.63;2.10;;;;;;;16.18;54.74;101391.88;8004821;28;20043;-66
2021/08/11 00:36:28;;;;;;;4.65;2.70;;;;;;;16.13;54.80;101400.19;7989332;28;20040;-67
2021/08/11 00:40:22;;;;;;;4.95;2.45;;;;;;;16.09;54.76;101400.53;7982395;28;20041;-67
2021/08/11 00:44:15;;;;;;;11.15;2.78;;;;;;;16.02;54.74;101391.41;7988124;28;20037;-67
2021/08/11 00:48:09;;;;;;;8.20;2.60;;;;;;;16.02;54.72;101402.00;7985793;28;20064;-67
2021/08/11 00:52:00;;;;;;;7.93;2.65;;;;;;;15.97;54.82;101390.94;7991195;28;20115;-67
2021/08/11 00:55:51;;;;;;;5.63;2.63;;;;;;;15.92;54.83;101393.09;7984546;28;20037;-67
2021/08/11 00:59:44;;;;;;;5.00;2.88;;;;;;;15.90;54.94;101398.53;7985762;28;20045;-66
2021/08/11 01:03:39;;;;;;;6.13;2.85;;;;;;;15.83;54.91;101396.50;7996183;28;20063;-67
2021/08/11 01:07:34;;;;;;;8.50;2.50;;;;;;;15.85;54.85;101415.75;7988545;28;20033;-67
2021/08/11 01:11:25;;;;;;;3.40;2.42;;;;;;;15.81;54.97;101403.72;7990490;28;20025;-67
2021/08/11 01:15:17;;;;;;;5.15;2.90;;;;;;;15.78;54.99;101403.97;7994101;28;20439;-67
2021/08/11 01:19:11;;;;;;;5.70;2.22;;;;;;;15.76;54.98;101405.88;7989245;28;20033;-67
2021/08/11 01:23:10;;;;;;;2.92;2.13;;;;;;;15.75;55.27;101398.94;7999324;28;20513;-67
2021/08/11 01:27:13;;;;;;;7.68;3.10;;;;;;;15.73;55.34;101396.38;7976561;28;20043;-67
2021/08/11 01:31:07;;;;;;;7.30;2.53;;;;;;;15.72;55.44;101402.63;7983211;28;20038;-66
2021/08/11 01:35:01;;;;;;;4.43;2.50;;;;;;;15.71;55.57;101409.75;7984972;28;20037;-66
2021/08/11 01:39:18;;;;;;;3.90;2.70;;;;;;;15.66;55.67;101401.31;7988846;28;20045;-67
2021/08/11 01:43:09;;;;;;;8.15;3.03;;;;;;;15.70;55.55;101405.44;7984130;28;20065;-67
2021/08/11 01:47:06;;;;;;;7.78;2.92;;;;;;;15.69;55.65;101413.50;7984961;28;20033;-67
2021/08/11 01:50:58;;;;;;;5.00;2.50;;;;;;;15.66;55.79;101409.25;7974787;28;20179;-67
2021/08/11 01:54:50;;;;;;;4.78;2.15;;;;;;;15.65;55.65;101412.88;7988223;28;20029;-67
2021/08/11 01:58:42;;;;;;;5.47;2.30;;;;;;;15.64;55.73;101410.34;7992941;28;20029;-67
2021/08/11 02:02:37;;;;;;;3.65;2.47;;;;;;;15.61;55.66;101408.81;7986933;28;20055;-67
2021/08/11 02:06:28;;;;;;;5.85;2.47;;;;;;;15.57;55.62;101407.34;7985008;28;20029;-67
2021/08/11 02:10:27;;;;;;;5.97;2.67;;;;;;;15.54;55.56;101412.88;7989001;28;20104;-67
2021/08/11 02:14:23;;;;;;;5.43;2.13;;;;;;;15.51;55.28;101412.28;8015532;28;20061;-67
2021/08/11 02:18:13;;;;;;;2.78;1.90;;;;;;;15.48;55.60;101413.38;7992401;28;20087;-68
2021/08/11 02:22:05;;;;;;;7.95;2.35;;;;;;;15.42;55.55;101405.03;7984298;28;20056;-67
2021/08/11 02:26:19;;;;;;;4.72;2.05;;;;;;;15.37;55.51;101400.13;7981695;28;20522;-67
2021/08/11 02:30:13;;;;;;;3.97;2.42;;;;;;;15.33;55.41;101400.50;7990313;28;20071;-67
2021/08/11 02:34:14;;;;;;;4.32;2.13;;;;;;;15.28;55.24;101403.47;7994516;28;20041;-66
2021/08/11 02:38:11;;;;;;;4.72;2.28;;;;;;;15.23;55.45;101408.25;7990009;28;20041;-67
2021/08/11 02:42:08;;;;;;;4.95;2.20;;;;;;;15.19;55.40;101406.81;7991818;28;20037;-67
2021/08/11 02:46:04;;;;;;;4.47;2.55;;;;;;;15.15;55.35;101408.84;7989204;28;20473;-67
2021/08/11 02:49:56;;;;;;;6.22;2.17;;;;;;;15.10;55.13;101407.50;7977039;28;20033;-67
2021/08/11 02:53:47;;;;;;;3.20;2.33;;;;;;;15.07;55.43;101405.09;7987508;28;20087;-67
2021/08/11 02:57:38;;;;;;;8.20;2.35;;;;;;;15.04;55.42;101405.34;7997825;28;20146;-67
2021/08/11 03:01:29;;;;;;;3.10;1.80;;;;;;;14.99;55.48;101404.84;7990682;28;20029;-67
2021/08/11 03:05:21;;;;;;;4.40;2.20;;;;;;;14.94;55.29;101402.56;7993300;28;20045;-67
2021/08/11 03:09:12;;;;;;;3.40;2.22;;;;;;;14.90;55.15;101406.38;7991937;28;20052;-67
2021/08/11 03:13:04;;;;;;;7.70;2.45;;;;;;;14.84;55.47;101401.56;7987636;28;20049;-67
2021/08/11 03:16:56;;;;;;;5.05;2.72;;;;;;;14.83;55.50;101414.91;7994898;28;20451;-67
2021/08/11 03:20:47;;;;;;;4.65;2.67;;;;;;;14.79;55.59;101412.47;7986091;28;20481;-67
2021/08/11 03:24:38;;;;;;;4.88;2.78;;;;;;;14.77;55.39;101409.13;7988162;28;20032;-67
2021/08/11 03:28:30;;;;;;;4.80;3.38;;;;;;;14.74;55.46;101414.66;7990143;28;20025;-67
2021/08/11 03:32:21;;;;;;;4.95;3.25;;;;;;;14.72;55.52;101413.06;7993355;28;20082;-67
2021/08/11 03:36:12;;;;;;;6.13;3.63;;;;;;;14.68;55.55;101417.72;8001606;28;20033;-67
2021/08/11 03:40:04;;;;;;;5.05;3.90;;;;;;;14.66;55.62;101414.38;7988542;28;20041;-67
2021/08/11 03:43:55;;;;;;;6.25;3.42;;;;;;;14.64;55.56;101412.78;8003433;28;20059;-67
2021/08/11 03:47:51;;;;;;;13.55;3.20;;;;;;;14.56;55.71;101405.44;7990857;28;20125;-67
2021/08/11 03:51:43;;;;;;;7.05;3.20;;;;;;;14.59;55.77;101422.84;7976611;28;20029;-67
2021/08/11 03:55:34;;;;;;;8.55;2.95;;;;;;;14.58;55.90;101431.75;7984471;28;20040;-67
2021/08/11 03:59:27;;;;;;;11.82;2.40;;;;;;;14.47;56.25;101413.19;7988303;28;20029;-67
2021/08/11 04:03:18;;;;;;;15.65;2.50;;;;;;;14.51;56.50;101426.06;7993529;28;20029;-67
2021/08/11 04:07:09;;;;;;;12.40;2.40;;;;;;;14.53;56.29;101432.09;7990217;28;20063;-67
2021/08/11 04:10:59;;;;;;;8.40;3.45;;;;;;;14.52;56.20;101440.13;7975964;28;20033;-67
2021/08/11 04:14:50;;;;;;;4.63;2.47;;;;;;;14.48;56.32;101438.66;7992506;28;20037;-66
2021/08/11 04:18:40;;;;;;;3.80;3.03;;;;;;;14.49;56.29;101440.38;7987537;28;20363;-67
2021/08/11 04:22:31;;;;;;;2.83;2.47;;;;;;;14.41;56.45;101429.47;7993354;28;20033;-67
2021/08/11 04:26:22;;;;;;;5.47;2.33;;;;;;;14.45;56.42;101434.47;7992689;28;20056;-67
2021/08/11 04:30:12;;;;;;;4.30;2.90;;;;;;;14.44;56.42;101424.00;7988135;28;20029;-67
2021/08/11 04:34:03;;;;;;;7.95;2.70;;;;;;;14.47;56.40;101431.69;7983720;28;20266;-67
2021/08/11 04:37:53;;;;;;;5.85;3.20;;;;;;;14.47;56.42;101434.34;7990751;28;20044;-67
2021/08/11 04:41:44;;;;;;;2.58;2.38;;;;;;;14.46;56.40;101438.81;7964145;28;20032;-66
2021/08/11 04:45:39;;;;;;;6.40;2.78;;;;;;;14.46;56.45;101444.09;7983928;28;20035;-67
2021/08/11 04:49:29;;;;;;;3.38;1.88;;;;;;;14.46;56.62;101441.44;7985178;28;20154;-67
2021/08/11 04:53:20;;;;;;;6.80;2.35;;;;;;;14.48;56.81;101447.44;7978995;28;20033;-67
2021/08/11 04:57:10;;;;;;;4.50;2.60;;;;;;;14.50;56.68;101452.63;7984482;28;20413;-67
2021/08/11 05:01:01;;;;;;;3.13;2.15;;;;;;;14.53;56.79;101447.13;7985791;28;20118;-66
2021/08/11 05:04:52;;;;;;;2.22;1.88;;;;;;;14.57;56.75;101452.06;7984734;28;20025;-66
2021/08/11 05:08:42;;;;;;;3.72;1.83;;;;;;;14.63;56.97;101453.44;7978294;28;20040;-66
2021/08/11 05:12:33;;;;;;;2.28;1.95;;;;;;;14.66;57.03;101455.84;7977642;28;20124;-66
2021/08/11 05:16:24;;;;;;;1.92;1.63;;;;;;;14.80;57.13;101455.63;7975173;28;20041;-66
2021/08/11 05:20:15;;;;;;;3.10;1.92;;;;;;;14.82;57.05;101453.75;7988813;28;20033;-68
2021/08/11 05:24:06;;;;;;;2.10;1.65;;;;;;;14.92;57.28;101459.19;7972475;28;20036;-67
2021/08/11 05:27:56;;;;;;;2.70;2.30;;;;;;;14.95;57.37;101459.81;7974105;28;20031;-67
2021/08/11 05:31:47;;;;;;;1.60;1.50;;;;;;;15.06;57.41;101464.25;7980750;28;20033;-67
2021/08/11 05:35:37;;;;;;;2.00;1.63;;;;;;;15.13;57.44;101468.13;7995170;28;20041;-67
2021/08/11 05:39:28;;;;;;;1.73;1.60;;;;;;;15.23;57.55;101474.41;7977603;28;20086;-67
2021/08/11 05:43:19;;;;;;;2.00;1.65;;;;;;;15.30;57.79;101462.44;7974607;28;20029;-67
2021/08/11 05:47:14;;;;;;;2.17;1.60;;;;;;;15.42;57.82;101469.44;7979222;28;20033;-67
2021/08/11 05:51:04;;;;;;;1.50;1.40;;;;;;;15.53;57.86;101472.13;7997104;28;20039;-67
2021/08/11 05:54:55;;;;;;;2.40;1.63;;;;;;;15.87;57.95;101478.25;7994444;28;20036;-66
2021/08/11 05:58:45;;;;;;;3.60;2.15;;;;;;;16.13;58.15;101482.34;7980510;28;20037;-67
2021/08/11 06:02:40;;;;;;;2.40;1.90;;;;;;;16.32;58.12;101487.03;7980587;28;20037;-67
2021/08/11 06:06:52;;;;;;;2.95;1.63;;;;;;;16.48;58.06;101490.13;7979196;28;20509;-68
2021/08/11 06:10:43;;;;;;;3.05;2.28;;;;;;;16.66;57.90;101490.41;7980304;28;20030;-67
2021/08/11 06:14:33;;;;;;;3.47;2.05;;;;;;;16.85;57.87;101497.72;7983813;28;20056;-67
2021/08/11 06:18:24;;;;;;;3.22;2.40;;;;;;;17.38;57.61;101498.56;7979969;28;20038;-67
2021/08/11 06:22:15;;;;;;;5.32;2.53;;;;;;;18.18;57.80;101494.22;7987754;28;20550;-67
2021/08/11 06:26:06;;;;;;;6.65;2.17;;;;;;;19.17;57.25;101504.75;7988442;28;20044;-66
2021/08/11 06:29:57;;;;;;;3.65;1.75;;;;;;;20.09;56.72;101513.78;7997564;28;20029;-68
2021/08/11 06:33:47;;;;;;;4.43;2.17;;;;;;;20.81;56.56;101504.91;7990217;28;20052;-67
2021/08/11 06:37:49;;;;;;;2.40;2.05;;;;;;;21.36;55.85;101500.22;7995775;28;20379;-67
2021/08/11 06:41:39;;;;;;;3.15;2.30;;;;;;;21.84;55.30;101506.81;7990869;28;20053;-68
2021/08/11 06:45:42;;;;;;;3.55;2.25;;;;;;;22.34;54.83;101486.31;7981106;28;20525;-67
2021/08/11 06:49:33;;;;;;;3.17;2.17;;;;;;;23.10;54.20;101496.88;7977712;28;20029;-68
2021/08/11 06:53:23;;;;;;;3.83;2.20;;;;;;;23.91;53.76;101493.22;7977177;28;20536;-68
2021/08/11 06:57:14;;;;;;;4.60;2.22;;;;;;;24.67;52.98;101494.16;7977417;28;20037;-68
2021/08/11 07:01:05;;;;;;;4.05;2.22;;;;;;;25.35;52.09;101493.28;7978710;28;20037;-68
2021/08/11 07:04:55;;;;;;;4.25;2.40;;;;;;;25.91;51.54;101499.06;7978966;28;20104;-67
2021/08/11 07:08:46;;;;;;;5.05;2.95;;;;;;;26.41;50.32;101500.94;7971573;28;20620;-68
2021/08/11 07:12:37;;;;;;;5.78;3.38;;;;;;;26.79;49.82;101494.34;7974788;28;20039;-66
2021/08/11 07:16:27;;;;;;;4.43;2.60;;;;;;;27.14;48.71;101505.22;7967165;28;20067;-67
2021/08/11 07:20:18;;;;;;;3.22;2.75;;;;;;;27.51;48.07;101505.72;7969179;28;20702;-66
2021/08/11 07:24:09;;;;;;;3.88;2.70;;;;;;;27.85;47.54;101507.63;7977695;28;20041;-66
2021/08/11 07:28:00;;;;;;;4.15;2.53;;;;;;;27.94;46.79;101511.00;7992595;28;20028;-66
2021/08/11 07:32:01;;;;;;;5.38;3.28;;;;;;;27.64;46.36;101513.09;8021310;28;20126;-66
2021/08/11 07:35:52;;;;;;;10.45;2.97;;;;;;;27.77;45.90;101515.06;8010153;28;20037;-66
2021/08/11 07:39:43;;;;;;;5.38;3.20;;;;;;;28.06;45.33;101520.19;8001227;28;20017;-66
2021/08/11 07:43:34;;;;;;;9.38;3.30;;;;;;;27.87;44.94;101520.94;8002268;28;20463;-66
2021/08/11 07:47:25;;;;;;;6.38;3.05;;;;;;;27.43;44.78;101508.56;8011604;28;20035;-66
2021/08/11 07:51:15;;;;;;;8.65;6.05;;;;;;;27.54;45.01;101520.72;8000452;28;20033;-66
2021/08/11 07:55:07;;;;;;;4.90;2.88;;;;;;;27.54;44.57;101523.41;7987622;28;20044;-67
2021/08/11 07:58:57;;;;;;;4.70;3.17;;;;;;;27.38;44.29;101515.63;7986606;28;20140;-69
2021/08/11 08:02:49;;;;;;;7.70;3.75;;;;;;;27.86;43.64;101521.97;7989671;28;20060;-66
2021/08/11 08:06:41;;;;;;;4.45;3.03;;;;;;;28.01;43.55;101522.66;7988541;28;20047;-67
2021/08/11 08:10:31;;;;;;;6.75;3.00;;;;;;;28.13;43.62;101537.28;7989761;28;20029;-68
2021/08/11 08:14:22;;;;;;;4.22;2.92;;;;;;;27.90;43.68;101528.63;7988112;28;20033;-68
2021/08/11 08:18:13;;;;;;;3.95;2.42;;;;;;;27.32;43.78;101529.88;7986728;28;20045;-66
2021/08/11 08:22:04;;;;;;;4.00;2.85;;;;;;;26.79;43.84;101525.84;7988647;28;20037;-66
2021/08/11 08:25:55;;;;;;;3.95;2.65;;;;;;;26.30;44.07;101520.31;7984569;28;20033;-68
2021/08/11 08:29:45;;;;;;;3.60;2.58;;;;;;;25.83;44.51;101524.22;7985165;28;20036;-68
2021/08/11 08:33:36;;;;;;;2.90;2.20;;;;;;;25.44;44.72;101511.00;7989825;28;20053;-68
2021/08/11 08:37:31;;;;;;;3.33;2.45;;;;;;;25.41;45.80;101515.91;7985520;28;20126;-68
2021/08/11 08:41:22;;;;;;;2.92;2.05;;;;;;;25.51;46.12;101511.13;7976842;28;20033;-68
2021/08/11 08:45:14;;;;;;;7.30;3.25;;;;;;;25.45;45.94;101522.59;7972154;28;20033;-68
2021/08/11 08:49:06;;;;;;;4.32;2.83;;;;;;;25.33;45.64;101514.13;7971442;28;20036;-68
2021/08/11 08:52:59;;;;;;;3.88;2.25;;;;;;;25.27;45.78;101522.94;7971898;28;20036;-68
2021/08/11 08:56:50;;;;;;;5.28;2.05;;;;;;;25.23;46.05;101513.56;7970530;28;20037;-68
2021/08/11 09:00:41;;;;;;;4.82;2.30;;;;;;;25.36;45.62;101511.06;7971328;28;20040;-67
2021/08/11 09:04:31;;;;;;;3.00;2.15;;;;;;;25.46;45.77;101522.44;7968783;28;20029;-68
2021/08/11 09:08:22;;;;;;;3.75;2.03;;;;;;;25.41;45.74;101522.09;7970718;28;20044;-67
2021/08/11 09:12:15;;;;;;;3.50;2.40;;;;;;;25.25;45.22;101522.28;7970946;28;20060;-68
2021/08/11 09:16:06;;;;;;;2.80;2.15;;;;;;;25.03;45.29;101528.50;7970358;28;20029;-68
2021/08/11 09:19:59;;;;;;;4.22;2.00;;;;;;;24.88;45.80;101515.03;7970790;28;20052;-68
2021/08/11 09:23:49;;;;;;;3.72;2.53;;;;;;;24.79;45.81;101518.75;7969541;28;20035;-68
2021/08/11 09:27:42;;;;;;;3.17;2.17;;;;;;;24.70;45.73;101525.19;7971539;28;20034;-68
2021/08/11 09:31:33;;;;;;;3.45;1.92;;;;;;;24.60;45.37;101517.38;7970902;28;20045;-68
2021/08/11 09:35:35;;;;;;;3.50;2.03;;;;;;;24.45;45.74;101521.81;7970384;28;20033;-68
2021/08/11 09:39:31;;;;;;;5.35;2.17;;;;;;;24.32;45.75;101526.91;7970731;28;20022;-68
2021/08/11 09:43:32;;;;;;;2.30;1.77;;;;;;;24.19;45.96;101521.28;7970815;28;20041;-68
2021/08/11 09:47:23;;;;;;;3.47;1.88;;;;;;;24.18;45.79;101519.59;7971293;28;20553;-67
2021/08/11 09:51:13;;;;;;;7.40;2.22;;;;;;;24.20;46.29;101528.28;7969567;28;20044;-68
2021/08/11 09:55:04;;;;;;;8.02;4.82;;;;;;;24.19;46.16;101526.63;7964760;28;20041;-67
2021/08/11 09:59:03;;;;;;;3.25;2.40;;;;;;;24.18;46.20;101520.44;7968741;28;20025;-68
2021/08/11 10:03:03;;;;;;;3.50;1.88;;;;;;;24.16;46.26;101514.38;7966350;28;20022;-68
2021/08/11 10:06:54;;;;;;;3.70;1.70;;;;;;;24.21;46.48;101533.50;7971563;28;20033;-67
2021/08/11 10:10:47;;;;;;;2.67;1.50;;;;;;;24.17;46.40;101520.59;7972013;28;20029;-67
2021/08/11 10:14:38;;;;;;;3.63;2.08;;;;;;;24.08;46.37;101514.41;7970858;28;20120;-67
2021/08/11 10:18:28;;;;;;;3.60;1.90;;;;;;;24.03;45.97;101527.50;7970539;28;20071;-67
2021/08/11 10:22:21;;;;;;;2.83;1.60;;;;;;;23.95;45.94;101524.06;7970589;28;20503;-67
2021/08/11 10:26:13;;;;;;;2.35;1.65;;;;;;;23.84;45.97;101523.41;7962487;28;20091;-67
2021/08/11 10:30:04;;;;;;;1.50;1.38;;;;;;;23.79;46.25;101528.44;7964141;28;20036;-67
2021/08/11 10:33:56;;;;;;;4.07;2.13;;;;;;;23.79;46.12;101520.41;7963219;28;20033;-67
2021/08/11 10:37:46;;;;;;;6.40;2.00;;;;;;;23.77;46.09;101527.78;7962994;28;20045;-67
2021/08/11 10:41:38;;;;;;;3.05;2.17;;;;;;;23.78;46.50;101532.13;7961954;28;20060;-67
2021/08/11 10:45:29;;;;;;;2.53;1.88;;;;;;;23.78;46.29;101526.75;7962458;28;20041;-67
2021/08/11 10:49:22;;;;;;;3.58;2.10;;;;;;;23.78;46.13;101524.06;7961263;28;20033;-66
2021/08/11 10:53:13;;;;;;;2.70;1.90;;;;;;;23.74;45.97;101527.31;7959841;28;20394;-67
2021/08/11 10:57:03;;;;;;;2.20;1.73;;;;;;;23.75;46.35;101528.97;7961576;28;20033;-67
2021/08/11 11:00:54;;;;;;;2.28;1.63;;;;;;;23.70;46.32;101531.34;7964541;28;20041;-67
2021/08/11 11:04:46;;;;;;;2.55;1.73;;;;;;;23.66;46.24;101535.31;7963902;28;20033;-67
2021/08/11 11:08:37;;;;;;;1.70;1.35;;;;;;;23.65;46.25;101539.88;7963811;28;20021;-67
2021/08/11 11:12:28;;;;;;;1.83;1.50;;;;;;;23.65;46.08;101539.03;7964237;28;20125;-67
2021/08/11 11:16:19;;;;;;;2.65;1.60;;;;;;;23.63;46.34;101528.47;7963988;28;20033;-67
2021/08/11 11:20:10;;;;;;;2.33;1.48;;;;;;;23.68;46.45;101539.50;7963119;28;20041;-67
2021/08/11 11:24:01;;;;;;;1.58;1.40;;;;;;;23.69;46.27;101541.22;7958987;28;20033;-67
2021/08/11 11:27:56;;;;;;;2.28;1.60;;;;;;;23.69;46.39;101535.88;7963592;28;20036;-67
2021/08/11 11:31:55;;;;;;;1.88;1.40;;;;;;;23.75;46.29;101523.59;7963916;28;20539;-67
2021/08/11 11:35:46;;;;;;;1.83;1.40;;;;;;;23.76;46.16;101501.97;7963746;28;20493;-67
2021/08/11 11:39:39;;;;;;;1.38;0.93;;;;;;;23.86;46.10;101512.50;7963448;28;21575;-67
2021/08/11 11:43:31;;;;;;;2.70;1.80;;;;;;;23.92;46.41;101511.81;7963337;28;20886;-66
2021/08/11 11:47:38;;;;;;;1.90;1.42;;;;;;;23.93;46.01;101513.47;7963814;28;20021;-67
2021/08/11 11:51:29;;;;;;;2.80;1.80;;;;;;;23.99;45.65;101512.78;7962171;28;20034;-67
2021/08/11 11:55:35;;;;;;;5.55;1.92;;;;;;;24.02;45.76;101520.50;7960830;28;20044;-67
2021/08/11 11:59:27;;;;;;;3.38;1.60;;;;;;;24.06;45.47;101519.13;7963132;28;20060;-67
2021/08/11 12:03:20;;;;;;;1.88;1.60;;;;;;;24.06;45.57;101523.66;7961244;28;20033;-67
2021/08/11 12:07:26;;;;;;;2.70;1.52;;;;;;;24.01;45.25;101526.88;7960194;28;20478;-67
2021/08/11 12:11:19;;;;;;;2.28;1.55;;;;;;;24.02;45.23;101520.50;7963035;28;20530;-67
2021/08/11 12:15:18;;;;;;;2.38;1.60;;;;;;;24.03;45.41;101519.47;7963059;28;20037;-67
2021/08/11 12:19:15;;;;;;;2.00;1.42;;;;;;;24.00;44.89;101510.94;7966977;28;20021;-67
2021/08/11 12:23:26;;;;;;;2.50;1.57;;;;;;;23.97;45.54;101530.06;7964579;28;20044;-67
2021/08/11 12:27:17;;;;;;;3.97;2.00;;;;;;;24.02;45.17;101522.34;7966093;28;20028;-68
2021/08/11 12:31:23;;;;;;;2.17;1.58;;;;;;;24.01;45.25;101513.44;7966086;28;20045;-74
2021/08/11 12:35:13;;;;;;;4.28;1.75;;;;;;;24.04;44.87;101515.78;7966027;28;20379;-74
2021/08/11 12:39:13;;;;;;;2.97;1.70;;;;;;;24.02;45.07;101509.75;7967836;28;20512;-71
2021/08/11 12:43:05;;;;;;;1.88;1.60;;;;;;;23.91;44.96;101494.03;7967940;28;20121;-72
2021/08/11 12:46:58;;;;;;;3.92;2.38;;;;;;;23.96;44.81;101505.06;7966902;28;20441;-72
2021/08/11 12:50:49;;;;;;;2.42;1.73;;;;;;;23.95;45.22;101503.41;7964904;28;21024;-68
2021/08/11 12:55:00;;;;;;;3.25;2.00;;;;;;;23.92;45.07;101502.91;7963624;28;20061;-69
2021/08/11 12:58:57;;;;;;;2.80;1.83;;;;;;;23.88;44.61;101503.28;7967192;28;20034;-68
2021/08/11 13:02:59;;;;;;;2.08;1.83;;;;;;;23.83;44.35;101505.63;7966520;28;20087;-68
2021/08/11 13:06:52;;;;;;;4.80;1.90;;;;;;;23.83;44.64;101494.91;7967735;28;20393;-67
2021/08/11 13:10:54;;;;;;;1.73;1.45;;;;;;;23.85;44.54;101495.56;7965931;28;20719;-68
2021/08/11 13:14:56;;;;;;;3.47;1.90;;;;;;;23.82;44.72;101498.56;7964406;28;20120;-68
2021/08/11 13:18:46;;;;;;;2.35;1.75;;;;;;;23.82;44.51;101493.22;7966874;28;20080;-68
2021/08/11 13:22:37;;;;;;;1.80;1.52;;;;;;;23.81;44.80;101483.53;7967056;28;20104;-68
2021/08/11 13:26:27;;;;;;;2.30;1.88;;;;;;;23.82;44.70;101489.72;7963652;28;20037;-67
2021/08/11 13:30:19;;;;;;;6.38;1.73;;;;;;;23.81;44.36;101491.56;7966763;28;20025;-67
2021/08/11 13:34:09;;;;;;;2.33;1.83;;;;;;;23.78;44.53;101486.53;7966246;28;20033;-67
2021/08/11 13:38:05;;;;;;;3.67;2.03;;;;;;;23.72;43.94;101465.78;7966380;28;20041;-67
2021/08/11 13:41:56;;;;;;;2.45;1.88;;;;;;;23.78;44.27;101480.34;7966040;28;20033;-67
2021/08/11 13:45:46;;;;;;;2.13;1.85;;;;;;;23.75;44.15;101478.81;7966089;28;20043;-67
2021/08/11 13:49:37;;;;;;;2.75;1.77;;;;;;;23.75;44.04;101468.09;7965781;28;20040;-67
2021/08/11 13:53:27;;;;;;;2.08;1.70;;;;;;;23.77;44.04;101465.25;7964443;28;20559;-67
2021/08/11 13:57:18;;;;;;;4.13;2.08;;;;;;;23.78;43.96;101465.06;7968191;28;20421;-67
2021/08/11 14:01:08;;;;;;;8.55;2.05;;;;;;;23.76;43.89;101463.56;7970971;28;20037;-68
2021/08/11 14:04:59;;;;;;;2.35;1.75;;;;;;;23.71;43.68;101457.88;7971505;28;20401;-68
2021/08/11 14:08:50;;;;;;;3.10;1.90;;;;;;;23.68;43.75;101461.72;7970430;28;20025;-67
2021/08/11 14:12:40;;;;;;;4.13;1.95;;;;;;;23.69;43.49;101458.06;7971067;28;20045;-68
2021/08/11 14:16:31;;;;;;;2.60;1.85;;;;;;;23.69;43.68;101459.88;7966486;28;20033;-67
2021/08/11 14:20:21;;;;;;;3.88;1.88;;;;;;;23.66;43.63;101449.47;7964277;28;20071;-67
2021/08/11 14:24:12;;;;;;;2.95;1.90;;;;;;;23.65;43.76;101454.03;7958488;28;20044;-68
2021/08/11 14:28:03;;;;;;;2.97;1.92;;;;;;;23.66;43.73;101449.47;7966284;28;20041;-68
2021/08/11 14:31:53;;;;;;;2.40;1.88;;;;;;;23.70;43.32;101458.91;7964831;28;20044;-67
2021/08/11 14:35:44;;;;;;;3.50;2.13;;;;;;;23.73;43.56;101459.41;7964945;28;20038;-67
2021/08/11 14:39:34;;;;;;;2.78;1.90;;;;;;;23.77;43.84;101457.22;7963993;28;20075;-68
2021/08/11 14:43:25;;;;;;;3.20;1.98;;;;;;;23.80;43.65;101455.00;7965015;28;20409;-65
2021/08/11 14:47:17;;;;;;;2.58;1.90;;;;;;;23.83;43.43;101460.03;7965035;28;20029;-66
2021/08/11 14:51:08;;;;;;;2.05;1.40;;;;;;;23.85;43.57;101454.50;7963482;28;20432;-65
2021/08/11 14:54:59;;;;;;;3.00;1.63;;;;;;;23.83;43.47;101460.03;7960127;28;20033;-65
2021/08/11 14:58:49;;;;;;;3.20;1.80;;;;;;;23.82;43.48;101458.34;7962391;28;20087;-65
2021/08/11 15:02:40;;;;;;;2.38;1.83;;;;;;;23.81;43.54;101453.16;7962940;28;20033;-67
2021/08/11 15:06:30;;;;;;;3.17;1.95;;;;;;;23.80;43.43;101455.00;7963453;28;20045;-65
2021/08/11 15:10:21;;;;;;;2.83;1.67;;;;;;;23.82;43.38;101454.84;7967802;28;20393;-66
2021/08/11 15:14:11;;;;;;;3.30;1.73;;;;;;;23.86;43.36;101456.16;7967399;28;20663;-66
2021/08/11 15:18:02;;;;;;;2.50;1.73;;;;;;;23.88;43.60;101454.97;7967717;28;20523;-66
2021/08/11 15:21:53;;;;;;;2.88;1.73;;;;;;;23.95;43.38;101456.97;7968047;28;20041;-66
2021/08/11 15:25:45;;;;;;;2.78;2.13;;;;;;;23.96;43.21;101455.94;7963471;28;20063;-66
2021/08/11 15:29:35;;;;;;;13.20;3.67;;;;;;;23.91;43.80;101448.41;7967216;28;20033;-66
2021/08/11 15:33:26;;;;;;;4.03;2.10;;;;;;;23.88;43.38;101448.78;7966027;28;20041;-66
2021/08/11 15:37:17;;;;;;;2.95;2.03;;;;;;;23.88;43.54;101440.72;7962382;28;20545;-66
2021/08/11 15:41:07;;;;;;;4.97;2.10;;;;;;;23.83;43.22;101445.75;7958537;28;20029;-68
2021/08/11 15:44:58;;;;;;;3.38;2.20;;;;;;;23.79;43.21;101439.06;7961972;28;20041;-67
2021/08/11 15:48:49;;;;;;;2.85;2.08;;;;;;;23.75;43.46;101438.59;7954925;28;20041;-66
2021/08/11 15:52:39;;;;;;;3.53;2.25;;;;;;;23.74;43.67;101442.28;7962132;28;20045;-67
2021/08/11 15:56:30;;;;;;;2.63;2.28;;;;;;;23.70;43.49;101437.47;7962645;28;20086;-68
2021/08/11 16:00:21;;;;;;;4.80;2.60;;;;;;;23.60;43.56;101440.31;7963563;28;20494;-65
2021/08/11 16:04:12;;;;;;;2.72;1.98;;;;;;;23.54;43.55;101445.50;7966078;28;20080;-68
2021/08/11 16:08:03;;;;;;;2.60;1.70;;;;;;;23.51;43.56;101440.50;7961339;28;20698;-65
2021/08/11 16:11:53;;;;;;;3.38;1.92;;;;;;;23.51;43.90;101441.34;7963247;28;20683;-66
2021/08/11 16:15:44;;;;;;;3.42;2.20;;;;;;;23.51;43.63;101446.69;7963273;28;20578;-65
2021/08/11 16:19:34;;;;;;;3.50;2.00;;;;;;;23.51;43.71;101445.84;7967714;28;20029;-66
2021/08/11 16:23:25;;;;;;;4.30;2.05;;;;;;;23.52;43.85;101442.19;7962811;28;20079;-65
2021/08/11 16:27:16;;;;;;;5.82;2.03;;;;;;;23.48;43.79;101441.69;7966203;28;20448;-65
2021/08/11 16:31:06;;;;;;;3.55;2.13;;;;;;;23.43;43.94;101438.69;7969039;28;20434;-66
2021/08/11 16:34:57;;;;;;;2.70;1.80;;;;;;;23.27;43.90;101426.16;7967972;28;20064;-66
2021/08/11 16:38:48;;;;;;;3.90;2.40;;;;;;;23.37;44.06;101442.88;7965621;28;20048;-66
2021/08/11 16:42:39;;;;;;;3.38;2.30;;;;;;;23.35;43.74;101452.09;7968998;28;20044;-65
2021/08/11 16:46:29;;;;;;;2.58;2.00;;;;;;;23.30;43.79;101449.09;7965812;28;20037;-65
2021/08/11 16:50:20;;;;;;;3.40;2.28;;;;;;;23.24;43.77;101444.44;7966416;28;20021;-66
2021/08/11 16:54:11;;;;;;;2.88;1.92;;;;;;;23.19;44.01;101441.41;7964508;28;20045;-66
2021/08/11 16:58:01;;;;;;;4.28;2.60;;;;;;;23.11;44.35;101446.78;7970190;28;20071;-66
2021/08/11 17:01:52;;;;;;;3.55;2.10;;;;;;;23.06;44.30;101443.75;7969064;28;20036;-66
2021/08/11 17:05:43;;;;;;;2.88;2.28;;;;;;;22.99;44.93;101441.72;7968919;28;20077;-66
2021/08/11 17:09:33;;;;;;;3.22;2.33;;;;;;;22.95;44.66;101445.75;7964904;28;20428;-66
2021/08/11 17:13:24;;;;;;;3.15;2.15;;;;;;;22.90;45.10;101442.75;7967709;28;20039;-65
2021/08/11 17:17:14;;;;;;;3.50;2.20;;;;;;;22.84;45.28;101438.06;7966551;28;20043;-65
2021/08/11 17:21:05;;;;;;;5.43;3.63;;;;;;;22.80;45.29;101444.75;7964082;28;20036;-66
2021/08/11 17:24:56;;;;;;;4.95;3.30;;;;;;;22.75;45.37;101447.09;7963072;28;20079;-65
2021/08/11 17:28:46;;;;;;;4.35;2.60;;;;;;;22.67;45.50;101436.38;7965398;28;20535;-66
2021/08/11 17:32:37;;;;;;;6.28;2.60;;;;;;;22.66;45.33;101442.75;7965165;28;20794;-66
2021/08/11 17:36:28;;;;;;;3.50;2.53;;;;;;;22.62;45.38;101444.09;7963615;28;20033;-68
2021/08/11 17:40:18;;;;;;;2.40;2.10;;;;;;;22.58;45.43;101439.22;7964406;28;20029;-66
2021/08/11 17:44:09;;;;;;;4.22;2.42;;;;;;;22.53;45.72;101439.72;7965363;28;20098;-67
2021/08/11 17:48:00;;;;;;;3.25;2.45;;;;;;;22.44;45.58;101438.84;7962659;28;20083;-70
2021/08/11 17:51:50;;;;;;;3.13;2.50;;;;;;;22.41;46.10;101431.16;7965229;28;20030;-69
2021/08/11 17:55:41;;;;;;;3.53;2.40;;;;;;;22.37;46.06;101437.81;7960447;28;20041;-69
2021/08/11 17:59:31;;;;;;;3.92;2.38;;;;;;;22.32;46.18;101434.81;7965426;28;20030;-69